Time;durP1;ratioP1;P1;durP2;ratioP2;P2;SDS_P1;SDS_P2;PMS_P1;PMS_P2;Temp;Humidity;BMP_temperature;BMP_pressure;BME280_temperature;BME280_humidity;BME280_pressure;Samples;Min_cycle;Max_cycle;Signal;HPM_P1;HPM_P2
2023/10/18 00:00:32;;;;;;;2.15;0.95;;;;;;;8.74;77.80;100813.06;5086670;28;20150;-72
2023/10/18 00:03:01;;;;;;;1.55;0.70;;;;;;;8.72;78.86;100807.19;5088372;28;20035;-72
2023/10/18 00:05:27;;;;;;;1.38;0.50;;;;;;;8.71;78.98;100813.31;5086815;28;20035;-72
2023/10/18 00:07:54;;;;;;;3.28;1.15;;;;;;;8.64;76.25;100818.19;5082380;28;20047;-73
2023/10/18 00:10:20;;;;;;;1.35;0.80;;;;;;;8.59;78.81;100814.31;5084848;28;20029;-72
2023/10/18 00:12:45;;;;;;;1.40;0.75;;;;;;;8.52;79.38;100813.13;5082219;28;20487;-72
2023/10/18 00:15:14;;;;;;;1.63;0.60;;;;;;;8.42;77.50;100814.84;5086843;28;20425;-73
2023/10/18 00:17:40;;;;;;;2.80;0.80;;;;;;;8.41;79.13;100814.03;5086423;28;20032;-72
2023/10/18 00:20:13;;;;;;;2.28;0.88;;;;;;;8.34;79.76;100807.66;5087455;28;20036;-72
2023/10/18 00:22:40;;;;;;;2.05;0.88;;;;;;;8.32;81.37;100812.97;5079055;28;20040;-72
2023/10/18 00:25:06;;;;;;;2.03;0.98;;;;;;;8.24;82.54;100810.13;5085499;28;20058;-72
2023/10/18 00:27:32;;;;;;;3.08;1.30;;;;;;;8.10;82.90;100810.38;5065943;28;20028;-72
2023/10/18 00:29:58;;;;;;;2.67;1.10;;;;;;;7.99;82.90;100810.41;5090096;28;20032;-72
2023/10/18 00:32:25;;;;;;;2.85;1.10;;;;;;;8.04;82.47;100797.88;5083509;28;20081;-72
2023/10/18 00:34:53;;;;;;;2.78;1.13;;;;;;;8.08;81.76;100793.28;5085280;28;20111;-72
2023/10/18 00:37:18;;;;;;;2.83;1.25;;;;;;;8.23;81.90;100800.69;5091553;28;20436;-72
2023/10/18 00:39:44;;;;;;;4.25;0.73;;;;;;;8.20;82.24;100793.13;5087714;28;20024;-71
2023/10/18 00:42:28;;;;;;;2.03;0.88;;;;;;;8.16;80.38;100791.72;5093605;28;20413;-72
2023/10/18 00:45:02;;;;;;;1.83;0.70;;;;;;;8.18;81.20;100789.84;5081944;28;20111;-72
2023/10/18 00:47:29;;;;;;;2.67;0.70;;;;;;;8.26;80.50;100787.47;5081776;28;20760;-72
2023/10/18 00:49:55;;;;;;;2.58;1.00;;;;;;;8.36;80.37;100782.41;5089786;28;20029;-72
2023/10/18 00:52:24;;;;;;;2.53;1.10;;;;;;;8.43;78.70;100782.75;5084040;28;20067;-72
2023/10/18 00:54:50;;;;;;;2.28;0.77;;;;;;;8.47;79.87;100781.56;5084636;28;20077;-72
2023/10/18 00:57:20;;;;;;;2.13;0.90;;;;;;;8.38;78.85;100775.31;5088077;28;20039;-72
2023/10/18 00:59:46;;;;;;;1.98;0.77;;;;;;;8.37;79.77;100767.66;5085029;28;20069;-72
2023/10/18 01:02:15;;;;;;;1.90;1.05;;;;;;;8.32;79.08;100776.63;5083333;28;20115;-72
2023/10/18 01:04:42;;;;;;;3.58;0.98;;;;;;;8.32;80.17;100765.38;5086103;28;20065;-72
2023/10/18 01:07:14;;;;;;;2.13;1.08;;;;;;;8.24;80.82;100771.19;5087903;28;20032;-72
2023/10/18 01:09:47;;;;;;;2.35;1.20;;;;;;;8.14;78.97;100767.66;5090417;28;20032;-72
2023/10/18 01:12:14;;;;;;;1.70;0.80;;;;;;;8.18;82.04;100771.66;5080381;28;20043;-72
2023/10/18 01:14:40;;;;;;;4.80;1.27;;;;;;;8.09;83.00;100766.38;5084776;28;20386;-72
2023/10/18 01:17:06;;;;;;;1.95;1.00;;;;;;;8.01;83.71;100761.81;5081303;28;20048;-72
2023/10/18 01:19:33;;;;;;;2.10;1.25;;;;;;;7.95;83.78;100762.28;5066767;28;20056;-72
2023/10/18 01:21:59;;;;;;;1.58;0.80;;;;;;;8.01;83.79;100761.00;5088218;28;20559;-72
2023/10/18 01:24:34;;;;;;;2.45;1.23;;;;;;;7.98;83.83;100757.69;5083538;28;20058;-73
2023/10/18 01:27:04;;;;;;;1.90;1.07;;;;;;;7.94;84.30;100758.06;5085310;28;20023;-73
2023/10/18 01:29:30;;;;;;;1.38;0.80;;;;;;;7.89;85.02;100757.59;5088326;28;20199;-72
2023/10/18 01:31:56;;;;;;;4.88;1.42;;;;;;;7.80;85.17;100753.13;5069896;28;20039;-72
2023/10/18 01:34:22;;;;;;;4.38;1.13;;;;;;;7.75;84.19;100748.28;5081407;28;20036;-72
2023/10/18 01:36:49;;;;;;;2.85;0.93;;;;;;;7.91;84.52;100750.50;5072177;28;20046;-72
2023/10/18 01:39:20;;;;;;;1.88;0.85;;;;;;;7.90;83.91;100754.88;5083111;28;20074;-73
2023/10/18 01:41:53;;;;;;;2.00;0.98;;;;;;;7.85;82.11;100756.16;5084771;28;20547;-72
2023/10/18 01:44:27;;;;;;;1.83;1.00;;;;;;;7.79;82.50;100756.66;5081717;28;20036;-72
2023/10/18 01:46:55;;;;;;;4.30;1.52;;;;;;;7.62;82.49;100751.00;5087634;28;20036;-72
2023/10/18 01:49:25;;;;;;;1.80;0.73;;;;;;;7.52;83.13;100750.06;5086991;28;21724;-72
2023/10/18 01:51:53;;;;;;;2.45;0.93;;;;;;;7.45;84.05;100753.25;5086341;28;20034;-73
2023/10/18 01:54:20;;;;;;;2.03;1.15;;;;;;;7.42;85.48;100750.91;5084464;28;20116;-73
2023/10/18 01:56:49;;;;;;;2.67;0.90;;;;;;;7.45;84.23;100743.72;5084117;28;20145;-72
2023/10/18 01:59:18;;;;;;;3.15;1.17;;;;;;;7.55;85.39;100738.66;5086708;28;20111;-72
2023/10/18 02:01:44;;;;;;;3.08;0.90;;;;;;;7.62;84.32;100739.78;5085724;28;20547;-72
2023/10/18 02:04:23;;;;;;;1.88;1.10;;;;;;;7.70;84.72;100747.81;5084962;28;20032;-72
2023/10/18 02:06:50;;;;;;;2.30;1.25;;;;;;;7.77;81.69;100748.16;5083044;28;20115;-72
2023/10/18 02:09:16;;;;;;;3.10;1.02;;;;;;;7.94;81.48;100740.72;5086363;28;20046;-72
2023/10/18 02:11:43;;;;;;;1.80;0.85;;;;;;;7.96;81.91;100743.19;5076484;28;20035;-72
2023/10/18 02:14:09;;;;;;;1.38;0.57;;;;;;;7.89;81.92;100737.66;5088459;28;20025;-73
2023/10/18 02:16:34;;;;;;;1.45;0.60;;;;;;;7.86;82.30;100744.84;5085915;28;20032;-73
2023/10/18 02:19:00;;;;;;;1.75;0.93;;;;;;;7.87;82.39;100746.50;5095888;28;20523;-73
2023/10/18 02:21:26;;;;;;;1.70;0.90;;;;;;;7.87;82.93;100749.91;5087629;28;20418;-73
2023/10/18 02:23:52;;;;;;;4.53;1.08;;;;;;;7.90;81.83;100751.44;5073605;28;20546;-73
2023/10/18 02:28:55;;;;;;;2.42;0.98;;;;;;;7.92;82.12;100752.16;5080635;28;20048;-72
2023/10/18 02:31:23;;;;;;;3.13;1.00;;;;;;;7.79;82.92;100754.06;5086864;28;20074;-72
2023/10/18 02:33:49;;;;;;;4.78;1.35;;;;;;;7.63;85.06;100750.03;5073890;28;20041;-72
2023/10/18 02:36:21;;;;;;;2.78;1.08;;;;;;;7.42;86.34;100759.50;5086039;28;20133;-72
2023/10/18 02:38:49;;;;;;;2.15;0.82;;;;;;;7.42;85.12;100756.06;5084519;28;20039;-73
2023/10/18 02:41:17;;;;;;;1.45;0.90;;;;;;;7.56;85.36;100756.66;5078017;28;20503;-72
2023/10/18 02:43:46;;;;;;;2.10;0.70;;;;;;;7.54;85.71;100758.56;5081291;28;20115;-72
2023/10/18 02:46:14;;;;;;;2.65;1.20;;;;;;;7.31;86.46;100756.88;5086756;28;20024;-72
2023/10/18 02:48:41;;;;;;;3.67;1.48;;;;;;;7.17;86.82;100764.88;5080179;28;20051;-72
2023/10/18 02:51:06;;;;;;;4.03;1.60;;;;;;;7.15;86.79;100758.97;5081904;28;20432;-72
2023/10/18 02:53:40;;;;;;;3.05;1.27;;;;;;;7.22;84.11;100749.81;5091889;28;20054;-72
2023/10/18 02:56:06;;;;;;;1.52;0.75;;;;;;;7.55;81.90;100752.44;5079754;28;20082;-72
2023/10/18 02:58:33;;;;;;;2.00;0.70;;;;;;;7.75;81.80;100750.88;5083076;28;20024;-72
2023/10/18 03:01:05;;;;;;;1.17;0.68;;;;;;;7.91;81.39;100748.75;5079960;28;20039;-71
2023/10/18 03:03:31;;;;;;;1.55;0.65;;;;;;;8.02;80.78;100757.44;5089276;28;20377;-73
2023/10/18 03:05:59;;;;;;;2.33;1.05;;;;;;;8.04;81.56;100756.34;5087011;28;20031;-72
2023/10/18 03:08:24;;;;;;;2.22;0.82;;;;;;;8.06;82.07;100756.22;5083919;28;20028;-72
2023/10/18 03:10:51;;;;;;;2.58;1.05;;;;;;;8.10;81.06;100750.69;5086539;28;20032;-72
2023/10/18 03:13:18;;;;;;;2.35;0.80;;;;;;;8.15;81.85;100745.13;5091373;28;20044;-72
2023/10/18 03:18:27;;;;;;;2.67;0.98;;;;;;;8.18;79.64;100748.31;5088036;28;20059;-73
2023/10/18 03:20:55;;;;;;;2.67;0.90;;;;;;;8.13;81.61;100740.06;5087187;28;20024;-72
2023/10/18 03:23:22;;;;;;;1.95;0.90;;;;;;;7.96;80.74;100740.59;5084012;28;20031;-72
2023/10/18 03:25:58;;;;;;;2.92;1.00;;;;;;;7.91;82.06;100740.13;5086760;28;20115;-72
2023/10/18 03:28:25;;;;;;;5.22;1.33;;;;;;;7.91;82.91;100743.53;5086458;28;20032;-73
2023/10/18 03:30:50;;;;;;;2.88;1.17;;;;;;;7.86;82.43;100742.25;5088712;28;20392;-73
2023/10/18 03:33:16;;;;;;;2.40;0.93;;;;;;;7.86;84.24;100747.44;5087337;28;20033;-73
2023/10/18 03:35:43;;;;;;;2.40;1.17;;;;;;;7.77;84.91;100748.97;5088285;28;20031;-72
2023/10/18 03:38:17;;;;;;;3.28;1.27;;;;;;;7.65;85.50;100742.16;5086314;28;20035;-72
2023/10/18 03:40:48;;;;;;;3.92;1.60;;;;;;;7.58;86.45;100744.38;5093432;28;20031;-72
2023/10/18 03:43:15;;;;;;;2.55;1.45;;;;;;;7.52;86.40;100747.47;5089345;28;20031;-72
2023/10/18 03:48:26;;;;;;;7.10;0.90;;;;;;;7.61;85.14;100740.72;5090784;28;20204;-72
2023/10/18 03:50:55;;;;;;;1.90;1.17;;;;;;;7.65;86.17;100740.38;5094022;28;20063;-73
2023/10/18 03:53:21;;;;;;;2.35;1.08;;;;;;;7.46;86.67;100740.19;5067815;28;20035;-73
2023/10/18 03:55:49;;;;;;;1.98;0.73;;;;;;;7.36;87.21;100734.03;5087361;28;20032;-72
2023/10/18 03:58:22;;;;;;;2.58;1.15;;;;;;;7.23;88.15;100733.31;5087022;28;20468;-73
2023/10/18 04:00:48;;;;;;;3.38;1.30;;;;;;;7.23;87.00;100733.31;5090062;28;20035;-72
2023/10/18 04:03:16;;;;;;;2.75;1.45;;;;;;;7.32;85.54;100724.84;5087436;28;20410;-73
2023/10/18 04:05:45;;;;;;;3.33;1.08;;;;;;;7.48;84.44;100719.31;5088653;28;20078;-72
2023/10/18 04:08:14;;;;;;;2.35;1.25;;;;;;;7.60;84.25;100720.94;5087853;28;20542;-72
2023/10/18 04:10:44;;;;;;;3.58;1.08;;;;;;;7.69;83.15;100722.00;5085963;28;20064;-72
2023/10/18 04:13:11;;;;;;;2.17;1.35;;;;;;;7.79;83.51;100715.97;5069970;28;20101;-72
2023/10/18 04:15:38;;;;;;;2.45;1.25;;;;;;;7.80;82.26;100717.63;5084846;28;20066;-72
2023/10/18 04:20:35;;;;;;;2.28;1.10;;;;;;;7.95;82.21;100705.22;5088788;28;20036;-72
2023/10/18 04:23:25;;;;;;;3.10;1.42;;;;;;;8.05;81.66;100711.28;5084013;28;20035;-71
2023/10/18 04:26:10;;;;;;;1.75;0.93;;;;;;;8.03;80.65;100702.00;5084057;28;20572;-72
2023/10/18 04:28:39;;;;;;;3.92;0.73;;;;;;;7.95;80.84;100700.03;5088047;28;20488;-72
2023/10/18 04:31:08;;;;;;;3.55;1.70;;;;;;;7.87;80.68;100697.22;5083933;28;20029;-72
2023/10/18 04:33:35;;;;;;;4.43;1.00;;;;;;;7.71;82.40;100691.56;5086662;28;20032;-72
2023/10/18 04:36:11;;;;;;;3.78;1.10;;;;;;;7.55;82.58;100695.38;5091945;28;20040;-73
2023/10/18 04:38:44;;;;;;;3.30;1.40;;;;;;;7.46;83.43;100695.28;5084507;28;20480;-73
2023/10/18 04:41:11;;;;;;;5.43;1.40;;;;;;;7.41;84.62;100685.25;5095012;28;20085;-72
2023/10/18 04:43:37;;;;;;;2.00;1.13;;;;;;;7.43;85.43;100687.72;5087428;28;20058;-72
2023/10/18 04:46:52;;;;;;;1.63;0.90;;;;;;;7.47;85.12;100683.97;5085898;28;20118;-73
2023/10/18 04:54:18;;;;;;;4.38;1.65;;;;;;;7.55;83.85;100695.38;5071283;28;20063;-72
2023/10/18 04:56:44;;;;;;;2.33;1.00;;;;;;;7.61;82.40;100694.06;5092932;28;20086;-72
2023/10/18 04:59:26;;;;;;;2.80;1.30;;;;;;;7.76;82.26;100689.44;5091067;28;20024;-72
2023/10/18 05:04:32;;;;;;;2.42;1.33;;;;;;;7.95;81.39;100689.66;5082429;28;20157;-71
2023/10/18 05:07:14;;;;;;;2.38;1.38;;;;;;;7.89;81.37;100690.97;5087197;28;20559;-71
2023/10/18 05:09:45;;;;;;;2.60;1.02;;;;;;;7.86;81.49;100678.22;5079510;28;20517;-72
2023/10/18 05:12:27;;;;;;;1.88;1.00;;;;;;;7.82;81.19;100688.97;5088554;28;20075;-72
2023/10/18 05:17:32;;;;;;;3.15;1.00;;;;;;;7.77;80.91;100688.50;5082824;28;20150;-73
2023/10/18 05:20:07;;;;;;;3.35;1.33;;;;;;;7.76;81.53;100692.03;5096118;28;20024;-73
2023/10/18 05:22:41;;;;;;;3.63;1.27;;;;;;;7.74;82.91;100699.13;5091221;28;20097;-73
2023/10/18 05:27:59;;;;;;;2.47;0.93;;;;;;;7.80;83.23;100696.03;5083752;28;20044;-72
2023/10/18 05:30:26;;;;;;;2.63;1.38;;;;;;;7.85;82.25;100697.34;5087714;28;20057;-72
2023/10/18 05:35:27;;;;;;;3.80;1.20;;;;;;;7.88;82.09;100698.88;5092472;28;20445;-72
2023/10/18 05:38:06;;;;;;;2.45;1.20;;;;;;;7.80;80.86;100703.81;5086661;28;20524;-72
2023/10/18 05:45:56;;;;;;;3.67;1.77;;;;;;;7.70;81.93;100711.50;5080788;28;20403;-72
2023/10/18 05:48:22;;;;;;;8.73;2.30;;;;;;;7.69;82.94;100722.81;5069635;28;20056;-71
2023/10/18 05:53:33;;;;;;;2.30;1.10;;;;;;;7.67;83.84;100711.72;5069415;28;20039;-72
2023/10/18 05:55:58;;;;;;;2.92;1.75;;;;;;;7.48;84.71;100720.13;5063829;28;20032;-72
2023/10/18 05:58:27;;;;;;;4.13;1.33;;;;;;;7.05;86.53;100724.38;5051528;28;20047;-71
2023/10/18 06:00:56;;;;;;;2.90;2.03;;;;;;;6.59;87.94;100722.59;5058139;28;20028;-72
2023/10/18 06:03:22;;;;;;;4.10;1.98;;;;;;;6.32;89.26;100717.66;5057370;28;20559;-72
2023/10/18 06:05:51;;;;;;;6.57;2.28;;;;;;;6.38;90.50;100714.63;5060152;28;20341;-71
2023/10/18 06:08:22;;;;;;;5.03;2.28;;;;;;;6.61;91.54;100718.16;5044778;28;20181;-72
2023/10/18 06:10:49;;;;;;;4.72;2.20;;;;;;;6.78;91.41;100728.06;5059492;28;20032;-72
2023/10/18 06:13:20;;;;;;;4.18;1.90;;;;;;;6.85;91.10;100739.63;5067856;28;20113;-72
2023/10/18 06:15:50;;;;;;;11.05;1.95;;;;;;;6.90;91.56;100734.94;5066680;28;20024;-72
2023/10/18 06:18:25;;;;;;;4.20;1.80;;;;;;;6.93;91.75;100732.09;5049589;28;20036;-71
2023/10/18 06:20:52;;;;;;;5.00;1.95;;;;;;;7.08;90.83;100734.50;5066691;28;20480;-71
2023/10/18 06:25:49;;;;;;;3.28;1.40;;;;;;;7.46;85.52;100732.41;5061118;28;20036;-71
2023/10/18 06:28:24;;;;;;;2.85;1.45;;;;;;;7.73;84.54;100732.00;5068171;28;20119;-71
2023/10/18 06:30:51;;;;;;;3.55;1.75;;;;;;;7.92;83.96;100731.41;5067604;28;20115;-71
2023/10/18 06:33:19;;;;;;;3.53;1.38;;;;;;;8.07;84.28;100739.72;5066970;28;20032;-71
2023/10/18 06:35:51;;;;;;;3.50;1.27;;;;;;;8.16;84.30;100739.00;5044445;28;20036;-71
2023/10/18 06:38:23;;;;;;;2.13;1.30;;;;;;;8.24;83.02;100741.81;5065921;28;20090;-72
2023/10/18 06:40:59;;;;;;;2.75;1.45;;;;;;;8.32;82.69;100745.47;5064661;28;20029;-71
2023/10/18 06:43:25;;;;;;;;;;;;;;;8.40;80.20;100751.81;5066075;28;20186;-69
2023/10/18 06:45:53;;;;;;;2.58;1.08;;;;;;;8.45;82.10;100747.91;5070874;28;19916;-70
2023/10/18 06:48:19;;;;;;;8.30;1.92;;;;;;;8.51;80.24;100750.00;5075728;28;20051;-70
2023/10/18 06:50:46;;;;;;;3.40;1.30;;;;;;;8.57;80.70;100754.69;5082860;28;20024;-70
2023/10/18 06:53:18;;;;;;;2.53;1.15;;;;;;;8.69;80.06;100752.88;5080526;28;20034;-70
2023/10/18 06:56:08;;;;;;;3.20;1.25;;;;;;;8.74;79.75;100750.72;5074598;28;20024;-69
2023/10/18 07:00:59;;;;;;;1.17;0.80;;;;;;;8.89;79.47;100753.84;5083897;28;20044;-71
2023/10/18 07:03:33;;;;;;;2.75;1.20;;;;;;;8.94;77.93;100751.69;5067677;28;20081;-71
2023/10/18 07:06:18;;;;;;;2.15;0.88;;;;;;;9.01;79.03;100749.38;5068472;28;20025;-71
2023/10/18 07:08:45;;;;;;;4.13;1.40;;;;;;;9.09;77.94;100741.78;5070931;28;20039;-70
2023/10/18 07:11:16;;;;;;;2.72;1.15;;;;;;;9.20;79.08;100746.91;5054328;28;20069;-71
2023/10/18 07:13:50;;;;;;;3.42;1.25;;;;;;;9.25;78.12;100745.56;5064370;28;20040;-71
2023/10/18 07:16:38;;;;;;;2.25;1.10;;;;;;;9.30;77.14;100746.00;5068260;28;20032;-72
2023/10/18 07:21:48;;;;;;;2.03;0.85;;;;;;;9.48;77.21;100743.59;5066281;28;20535;-71
2023/10/18 07:24:17;;;;;;;2.08;1.20;;;;;;;9.60;76.67;100739.13;5052098;28;20033;-71
2023/10/18 07:26:43;;;;;;;2.65;1.33;;;;;;;9.71;76.73;100741.66;5063062;28;20027;-71
2023/10/18 07:29:10;;;;;;;2.00;1.00;;;;;;;9.80;75.94;100729.63;5068767;28;20040;-71
2023/10/18 07:31:39;;;;;;;2.80;1.50;;;;;;;9.87;76.53;100718.56;5066309;28;20051;-71
2023/10/18 07:34:07;;;;;;;3.92;1.08;;;;;;;9.96;78.08;100724.72;5067189;28;20420;-71
2023/10/18 07:36:38;;;;;;;2.50;1.15;;;;;;;10.00;77.30;100731.28;5067831;28;20037;-71
2023/10/18 07:39:05;;;;;;;1.20;0.60;;;;;;;10.06;76.60;100728.16;5068636;28;20038;-71
2023/10/18 07:41:34;;;;;;;3.42;1.10;;;;;;;10.15;77.23;100726.53;5079826;28;20036;-71
2023/10/18 07:44:05;;;;;;;1.55;1.08;;;;;;;10.19;74.76;100731.38;5070915;28;20032;-71
2023/10/18 07:46:34;;;;;;;2.92;1.20;;;;;;;10.23;75.38;100729.31;5069330;28;20072;-71
2023/10/18 07:49:04;;;;;;;5.30;1.25;;;;;;;10.28;77.54;100734.94;5065973;28;20449;-71
2023/10/18 07:51:31;;;;;;;3.20;1.40;;;;;;;10.28;77.01;100735.78;5067896;28;20043;-71
2023/10/18 07:53:57;;;;;;;4.55;1.38;;;;;;;10.35;76.25;100730.03;5066681;28;20368;-71
2023/10/18 07:56:32;;;;;;;3.92;1.58;;;;;;;10.40;76.26;100730.44;5067046;28;20028;-72
2023/10/18 08:01:47;;;;;;;2.40;1.08;;;;;;;10.52;76.62;100734.53;5076534;28;20071;-72
2023/10/18 08:04:17;;;;;;;2.30;0.95;;;;;;;10.49;75.92;100727.81;5089757;28;20043;-72
2023/10/18 08:06:44;;;;;;;3.55;1.35;;;;;;;10.50;77.59;100723.41;5089511;28;20050;-72
2023/10/18 08:09:16;;;;;;;3.25;1.15;;;;;;;10.52;77.32;100727.53;5090658;28;20114;-72
2023/10/18 08:11:44;;;;;;;2.88;1.33;;;;;;;10.55;76.84;100724.66;5090201;28;20059;-72
2023/10/18 08:14:24;;;;;;;2.75;1.25;;;;;;;10.69;77.56;100722.59;5084895;28;20031;-72
2023/10/18 08:16:56;;;;;;;2.95;1.15;;;;;;;10.77;75.07;100727.94;5083745;28;20395;-72
2023/10/18 08:19:25;;;;;;;1.73;0.93;;;;;;;10.89;74.50;100730.22;5090796;28;20024;-72
2023/10/18 08:22:21;;;;;;;1.50;0.93;;;;;;;11.02;74.15;100719.50;5072566;28;20441;-71
2023/10/18 08:24:49;;;;;;;3.50;1.27;;;;;;;11.07;73.17;100712.06;5084605;28;20068;-71
2023/10/18 08:27:15;;;;;;;1.30;0.68;;;;;;;11.18;74.71;100713.69;5079021;28;20036;-71
2023/10/18 08:29:41;;;;;;;2.90;1.25;;;;;;;11.24;75.39;100713.13;5086871;28;23785;-72
2023/10/18 08:32:50;;;;;;;3.22;0.90;;;;;;;11.21;74.09;100714.25;5077697;28;20035;-71
2023/10/18 08:35:05;;;;;;;2.05;0.90;;;;;;;11.22;75.82;100715.06;5078588;28;20109;-71
2023/10/18 08:37:31;;;;;;;2.05;1.02;;;;;;;11.30;77.42;100710.78;5058942;28;20025;-71
2023/10/18 08:39:57;;;;;;;4.57;1.45;;;;;;;11.33;76.72;100720.09;5083501;28;20443;-71
2023/10/18 08:42:30;;;;;;;1.75;0.82;;;;;;;11.39;76.42;100716.06;5082724;28;20044;-71
2023/10/18 08:44:56;;;;;;;1.75;0.95;;;;;;;11.53;77.90;100715.59;5088747;28;20024;-71
2023/10/18 08:47:29;;;;;;;2.63;0.77;;;;;;;11.66;78.12;100712.66;5083003;28;20462;-71
2023/10/18 08:49:55;;;;;;;2.47;0.82;;;;;;;11.84;78.43;100721.38;5084399;28;20086;-71
2023/10/18 08:52:23;;;;;;;1.30;0.70;;;;;;;11.92;77.90;100724.06;5080016;28;20388;-71
2023/10/18 08:54:49;;;;;;;1.92;0.82;;;;;;;11.93;78.61;100717.88;5070600;28;20028;-71
2023/10/18 09:02:52;;;;;;;1.90;0.77;;;;;;;12.07;78.73;100721.78;5080021;28;20141;-71
2023/10/18 09:05:22;;;;;;;2.33;1.00;;;;;;;12.07;77.69;100721.78;5081711;28;20070;-71
2023/10/18 09:07:52;;;;;;;1.75;0.57;;;;;;;12.02;77.99;100724.84;5076053;28;20108;-71
2023/10/18 09:10:46;;;;;;;1.45;0.73;;;;;;;12.00;78.99;100725.97;5080953;28;20065;-71
2023/10/18 09:15:54;;;;;;;2.10;0.85;;;;;;;12.04;77.67;100725.53;5077976;28;20052;-71
2023/10/18 09:18:21;;;;;;;1.63;0.63;;;;;;;12.18;79.44;100722.41;5076152;28;20510;-71
2023/10/18 09:20:47;;;;;;;2.47;1.00;;;;;;;12.25;76.80;100726.06;5081276;28;20024;-71
2023/10/18 09:23:20;;;;;;;2.03;0.88;;;;;;;12.31;78.40;100716.78;5082701;28;20126;-71
2023/10/18 09:25:49;;;;;;;1.30;0.70;;;;;;;12.33;75.51;100719.25;5081072;28;20034;-71
2023/10/18 09:30:54;;;;;;;1.65;0.80;;;;;;;12.52;74.98;100706.84;5088174;28;20044;-71
2023/10/18 09:33:20;;;;;;;2.17;0.70;;;;;;;12.59;76.37;100712.31;5090075;28;20035;-71
2023/10/18 09:35:49;;;;;;;2.55;0.75;;;;;;;12.72;77.22;100712.75;5085781;28;20032;-71
2023/10/18 09:38:18;;;;;;;1.70;0.80;;;;;;;12.73;74.59;100714.38;5078131;28;20024;-70
2023/10/18 09:40:48;;;;;;;1.90;1.15;;;;;;;12.78;75.85;100719.94;5079779;28;20050;-71
2023/10/18 09:43:13;;;;;;;2.10;0.80;;;;;;;12.79;75.82;100711.13;5083113;28;20036;-71
2023/10/18 09:45:38;;;;;;;4.97;1.23;;;;;;;12.77;71.85;100715.69;5083003;28;20036;-71
2023/10/18 09:48:08;;;;;;;2.63;1.30;;;;;;;12.85;72.23;100712.31;5077461;28;20070;-71
2023/10/18 09:50:36;;;;;;;3.00;0.98;;;;;;;12.88;73.31;100714.63;5084880;28;20040;-71
2023/10/18 09:53:02;;;;;;;2.75;1.15;;;;;;;12.91;73.84;100717.75;5085232;28;20368;-71
2023/10/18 09:55:28;;;;;;;2.17;0.95;;;;;;;12.87;73.79;100720.81;5085769;28;20039;-71
2023/10/18 09:58:04;;;;;;;1.67;0.98;;;;;;;12.90;71.08;100716.13;5085784;28;20032;-71
2023/10/18 10:00:47;;;;;;;2.53;0.93;;;;;;;13.04;73.17;100703.47;5081615;28;20047;-71
2023/10/18 10:03:24;;;;;;;2.13;1.00;;;;;;;13.20;73.16;100714.06;5082325;28;20480;-71
2023/10/18 10:05:50;;;;;;;1.67;0.90;;;;;;;13.30;72.07;100706.88;5087943;28;20487;-71
2023/10/18 10:08:18;;;;;;;4.63;1.02;;;;;;;13.37;75.06;100697.44;5083446;28;20062;-71
2023/10/18 10:10:46;;;;;;;3.20;1.00;;;;;;;13.47;74.59;100703.38;5081858;28;20110;-71
2023/10/18 10:13:25;;;;;;;2.38;1.13;;;;;;;13.37;73.23;100697.44;5082324;28;20025;-71
2023/10/18 10:15:57;;;;;;;1.77;0.85;;;;;;;13.37;73.50;100691.38;5088547;28;20028;-71
2023/10/18 10:18:26;;;;;;;1.40;0.55;;;;;;;13.33;73.01;100690.88;5091925;28;20044;-71
2023/10/18 10:20:54;;;;;;;1.50;0.80;;;;;;;13.27;73.53;100689.69;5091827;28;20039;-71
2023/10/18 10:23:21;;;;;;;3.10;1.20;;;;;;;13.21;74.08;100692.97;5091933;28;20451;-71
2023/10/18 10:26:27;;;;;;;5.38;2.15;;;;;;;13.15;70.36;100682.28;5070694;28;20063;-71
2023/10/18 10:31:54;;;;;;;1.85;1.00;;;;;;;13.17;71.99;100680.34;4991300;28;20061;-70
2023/10/18 10:34:26;;;;;;;4.05;1.45;;;;;;;13.13;74.89;100679.81;4993549;28;20082;-71
2023/10/18 10:37:12;;;;;;;2.53;1.15;;;;;;;13.11;75.27;100683.56;4987573;28;20145;-71
2023/10/18 10:40:13;;;;;;;5.78;1.35;;;;;;;13.07;75.23;100683.03;4992251;28;20030;-71
2023/10/18 10:42:43;;;;;;;2.88;1.05;;;;;;;13.00;73.09;100681.19;4992115;28;20049;-71
2023/10/18 10:45:35;;;;;;;2.05;0.80;;;;;;;12.96;76.13;100691.16;4994024;28;20096;-71
2023/10/18 10:48:15;;;;;;;2.88;1.13;;;;;;;12.93;73.83;100687.03;4993820;28;20053;-71
2023/10/18 10:50:53;;;;;;;4.07;1.45;;;;;;;12.93;76.74;100684.44;4992088;28;20450;-71
2023/10/18 10:53:57;;;;;;;2.10;1.00;;;;;;;12.83;74.74;100675.84;4993504;28;20039;-71
2023/10/18 10:56:32;;;;;;;2.90;1.10;;;;;;;12.81;77.06;100667.34;4928854;29;20543;-71
2023/10/18 11:02:21;;;;;;;3.45;1.13;;;;;;;12.90;74.42;100650.75;4933560;29;20043;-71
2023/10/18 11:04:46;;;;;;;3.55;0.80;;;;;;;13.09;71.76;100656.72;5002448;28;20412;-71
2023/10/18 11:07:13;;;;;;;4.07;0.77;;;;;;;13.11;72.50;100644.31;5013507;28;20137;-71
2023/10/18 11:09:42;;;;;;;2.75;1.23;;;;;;;13.05;72.14;100640.53;5012968;28;20037;-71
2023/10/18 11:12:13;;;;;;;2.88;0.98;;;;;;;13.02;72.12;100640.84;5012965;28;20054;-71
2023/10/18 11:14:42;;;;;;;1.90;1.00;;;;;;;13.02;71.51;100630.38;5012793;28;20060;-71
2023/10/18 11:20:18;;;;;;;2.53;1.00;;;;;;;13.01;67.46;100635.75;5013068;28;20038;-71
2023/10/18 11:22:44;;;;;;;6.25;1.52;;;;;;;13.05;69.94;100626.63;5006064;28;20493;-71
2023/10/18 11:25:13;;;;;;;2.50;1.75;;;;;;;13.04;73.09;100627.59;5010684;28;20064;-71
2023/10/18 11:27:39;;;;;;;2.25;1.00;;;;;;;13.02;72.15;100621.72;5065833;28;20046;-71
2023/10/18 11:30:27;;;;;;;3.92;1.48;;;;;;;13.04;72.76;100619.75;5088612;28;20028;-71
2023/10/18 11:32:56;;;;;;;3.15;1.27;;;;;;;13.10;67.74;100617.34;5091075;28;20077;-71
2023/10/18 11:35:27;;;;;;;2.30;1.20;;;;;;;13.14;69.69;100602.16;5083042;28;20164;-71
2023/10/18 11:37:52;;;;;;;2.90;0.77;;;;;;;13.15;70.41;100606.41;5090377;28;20028;-71
2023/10/18 11:40:51;;;;;;;1.73;0.95;;;;;;;13.15;71.00;100601.16;5091128;28;20519;-71
2023/10/18 11:43:10;;;;;;;4.75;1.25;;;;;;;13.17;70.33;100592.22;5084966;28;20471;-71
2023/10/18 11:45:39;;;;;;;3.10;1.48;;;;;;;13.22;70.96;100594.38;5089352;28;20123;-71
2023/10/18 11:48:06;;;;;;;6.88;1.02;;;;;;;13.23;72.38;100593.38;5078281;28;20045;-71
2023/10/18 11:50:41;;;;;;;1.42;0.82;;;;;;;13.18;70.02;100595.66;5073660;28;20032;-71
2023/10/18 11:53:26;;;;;;;2.17;1.23;;;;;;;13.21;67.58;100590.13;5085931;28;20055;-71
2023/10/18 11:55:58;;;;;;;4.55;1.08;;;;;;;13.23;72.44;100585.53;5087843;28;20543;-71
2023/10/18 11:58:25;;;;;;;2.13;1.30;;;;;;;13.19;73.02;100589.44;5079590;28;20486;-71
2023/10/18 12:01:01;;;;;;;2.28;1.25;;;;;;;13.14;73.38;100584.66;5085821;28;20509;-71
2023/10/18 12:03:27;;;;;;;2.40;1.25;;;;;;;13.11;74.99;100582.34;5085019;28;20028;-71
2023/10/18 12:05:57;;;;;;;2.08;1.15;;;;;;;13.07;75.60;100585.44;5090548;28;20036;-71
2023/10/18 12:08:24;;;;;;;3.13;1.00;;;;;;;13.03;76.16;100584.94;5085804;28;20119;-72
2023/10/18 12:10:52;;;;;;;2.55;1.15;;;;;;;13.03;76.09;100578.88;5084591;28;20035;-71
2023/10/18 12:13:20;;;;;;;3.30;1.42;;;;;;;13.03;76.02;100579.69;5084762;28;20106;-71
2023/10/18 12:15:47;;;;;;;1.35;0.90;;;;;;;13.07;77.27;100580.22;5080729;28;20032;-71
2023/10/18 12:18:14;;;;;;;2.80;1.20;;;;;;;13.04;76.52;100576.09;5084889;28;20036;-71
2023/10/18 12:20:43;;;;;;;1.45;0.82;;;;;;;13.08;72.84;100582.66;5087149;28;20066;-71
2023/10/18 12:23:10;;;;;;;4.43;1.65;;;;;;;13.07;70.89;100580.22;5083713;28;20061;-71
2023/10/18 12:25:42;;;;;;;2.53;1.30;;;;;;;13.07;72.68;100580.22;5090977;28;20039;-71
2023/10/18 12:28:29;;;;;;;3.13;1.10;;;;;;;13.03;74.75;100573.66;5065490;28;20503;-71
2023/10/18 12:31:00;;;;;;;1.48;1.20;;;;;;;12.96;73.85;100563.81;5082442;28;20089;-71
2023/10/18 12:33:33;;;;;;;3.22;1.40;;;;;;;12.93;72.81;100566.75;5086443;28;20147;-71
2023/10/18 12:35:59;;;;;;;3.50;1.52;;;;;;;12.94;72.94;100571.00;5085440;28;20119;-71
2023/10/18 12:38:31;;;;;;;3.30;1.42;;;;;;;12.95;74.74;100562.19;5082309;28;20036;-71
2023/10/18 12:43:44;;;;;;;3.55;1.38;;;;;;;12.85;73.75;100560.66;5085407;28;20118;-71
2023/10/18 12:46:11;;;;;;;2.85;1.38;;;;;;;12.84;72.20;100554.59;5087959;28;20038;-71
2023/10/18 12:48:40;;;;;;;4.40;1.35;;;;;;;12.82;72.70;100553.94;5081663;28;20074;-71
2023/10/18 12:51:12;;;;;;;3.67;1.42;;;;;;;12.80;72.07;100548.06;5089153;28;20051;-71